Terminal Aerodrome Forecast
Issued by NWS

Home | Current Version | Previous Version | Text Only | Print | Product List | Glossary On
Versions: 1 2 3 4 5 6 7 8 9 10 11 12 13 14 15 16 17 18 19 20 21 22 23 24 25 26 27 28 29 30
144
FTAK31 PANC 251743
TAFAEN
TAF
PAEN 251743Z 2518/2618 15009KT P6SM VCSH OVC050
     FM252000 20013G23KT P6SM -SHRA SCT030 OVC045
     FM260400 17011KT P6SM VCSH BKN045
     FM261000 15005KT P6SM -SHRA SCT015 OVC030=

USA.gov is the U.S. government's official web portal to all federal, state and local government web resources and services.